Time;durP1;ratioP1;P1;durP2;ratioP2;P2;SDS_P1;SDS_P2;PMS_P1;PMS_P2;Temp;Humidity;BMP_temperature;BMP_pressure;BME280_temperature;BME280_humidity;BME280_pressure;Samples;Min_cycle;Max_cycle;Signal;HPM_P1;HPM_P2
2021/11/09 00:01:50;;;;;;;27.60;14.80;;;7.50;99.90;;;;;;4124579;28;20162;-61
2021/11/09 00:04:04;;;;;;;27.50;15.57;;;7.50;99.90;;;;;;4123790;28;20050;-70
2021/11/09 00:06:21;;;;;;;23.47;15.20;;;7.50;99.90;;;;;;4124431;28;20092;-64
2021/11/09 00:08:30;;;;;;;23.67;14.07;;;7.50;99.90;;;;;;4124287;28;20073;-62
2021/11/09 00:10:31;;;;;;;22.47;14.67;;;7.50;99.90;;;;;;4122430;28;20050;-68
2021/11/09 00:12:37;;;;;;;27.27;15.13;;;7.50;99.90;;;;;;4124136;28;21489;-67
2021/11/09 00:14:38;;;;;;;25.97;15.27;;;7.40;99.90;;;;;;4118882;28;20035;-61
2021/11/09 00:16:39;;;;;;;26.80;15.03;;;7.40;99.90;;;;;;4108062;28;20101;-60
2021/11/09 00:18:41;;;;;;;31.30;17.33;;;7.40;99.90;;;;;;4108878;28;20042;-60
2021/11/09 00:20:42;;;;;;;29.07;16.47;;;7.40;99.90;;;;;;4107216;28;20097;-69
2021/11/09 00:22:44;;;;;;;28.13;16.40;;;7.40;99.90;;;;;;4119564;28;20046;-61
2021/11/09 00:24:46;;;;;;;29.47;16.47;;;7.40;99.90;;;;;;4123344;28;20081;-68
2021/11/09 00:26:47;;;;;;;29.00;16.93;;;7.40;99.90;;;;;;4125183;28;20483;-61
2021/11/09 00:28:49;;;;;;;25.10;16.17;;;7.40;99.90;;;;;;4123799;28;20446;-64
2021/11/09 00:30:50;;;;;;;25.67;15.47;;;7.40;99.90;;;;;;4124361;28;20136;-63
2021/11/09 00:32:51;;;;;;;28.83;17.37;;;7.40;99.90;;;;;;4123250;28;20034;-61
2021/11/09 00:34:53;;;;;;;30.10;16.90;;;7.30;99.90;;;;;;4124696;28;20092;-65
2021/11/09 00:36:54;;;;;;;31.07;17.23;;;7.30;99.90;;;;;;4123283;28;20772;-62
2021/11/09 00:38:56;;;;;;;30.47;18.03;;;7.30;99.90;;;;;;4124862;28;20085;-66
2021/11/09 00:40:58;;;;;;;29.43;17.03;;;7.20;99.90;;;;;;4121683;28;20101;-62
2021/11/09 00:42:59;;;;;;;30.80;17.60;;;7.10;99.90;;;;;;4124061;28;20089;-63
2021/11/09 00:45:02;;;;;;;34.30;17.60;;;7.10;99.90;;;;;;4123805;28;20042;-62
2021/11/09 00:47:05;;;;;;;32.73;18.50;;;7.10;99.90;;;;;;4124115;28;20096;-69
2021/11/09 00:49:06;;;;;;;34.10;18.37;;;7.10;99.90;;;;;;4124906;28;20077;-66
2021/11/09 00:51:07;;;;;;;34.30;18.23;;;7.10;99.90;;;;;;4123641;28;20737;-70
2021/11/09 00:53:10;;;;;;;33.60;18.10;;;7.10;99.90;;;;;;4124208;28;20050;-62
2021/11/09 00:55:15;;;;;;;30.10;16.80;;;7.10;99.90;;;;;;4120532;28;20038;-68
2021/11/09 00:57:17;;;;;;;28.00;16.53;;;7.10;99.90;;;;;;4124915;28;20081;-64
2021/11/09 00:59:18;;;;;;;31.43;16.87;;;7.10;99.90;;;;;;4123502;28;20478;-65
2021/11/09 01:01:20;;;;;;;28.50;15.93;;;7.10;99.90;;;;;;4126764;28;20118;-66
2021/11/09 01:03:21;;;;;;;29.17;16.53;;;7.10;99.90;;;;;;4126100;28;20038;-66
2021/11/09 01:05:25;;;;;;;33.37;17.63;;;7.10;99.90;;;;;;4128023;28;20085;-69
2021/11/09 01:07:26;;;;;;;28.13;17.10;;;7.20;99.90;;;;;;4127162;28;20026;-70
2021/11/09 01:09:27;;;;;;;28.40;16.20;;;7.20;99.90;;;;;;4125917;28;20038;-62
2021/11/09 01:11:28;;;;;;;29.67;17.10;;;7.20;99.90;;;;;;4124044;28;20043;-58
2021/11/09 01:13:31;;;;;;;29.70;17.07;;;7.20;99.90;;;;;;4123776;28;20088;-64
2021/11/09 01:15:33;;;;;;;28.90;17.10;;;7.30;99.90;;;;;;4126330;28;20080;-70
2021/11/09 01:17:35;;;;;;;36.47;19.10;;;7.30;99.90;;;;;;4127641;28;20069;-60
2021/11/09 01:19:38;;;;;;;28.13;17.23;;;7.30;99.90;;;;;;4125140;28;20136;-63
2021/11/09 01:21:40;;;;;;;31.30;18.17;;;7.30;99.90;;;;;;4125892;28;20034;-64
2021/11/09 01:23:44;;;;;;;32.77;17.70;;;7.30;99.90;;;;;;4127353;28;20629;-60
2021/11/09 01:25:45;;;;;;;32.93;16.97;;;7.30;99.90;;;;;;4125669;28;20057;-70
2021/11/09 01:27:47;;;;;;;35.13;18.13;;;7.30;99.90;;;;;;4127608;28;20446;-62
2021/11/09 01:29:48;;;;;;;34.00;18.57;;;7.30;99.90;;;;;;4126018;28;20476;-61
2021/11/09 01:31:53;;;;;;;32.53;18.57;;;7.30;99.90;;;;;;4127371;28;20391;-60
2021/11/09 01:33:54;;;;;;;28.60;16.57;;;7.30;99.90;;;;;;4126097;28;20030;-62
2021/11/09 01:35:55;;;;;;;33.70;17.40;;;7.20;99.90;;;;;;4127550;28;20483;-61
2021/11/09 01:37:57;;;;;;;31.87;18.47;;;7.20;99.90;;;;;;4126497;28;20026;-66
2021/11/09 01:39:58;;;;;;;35.90;18.77;;;7.20;99.90;;;;;;4127466;28;20038;-60
2021/11/09 01:41:59;;;;;;;32.83;19.13;;;7.20;99.90;;;;;;4126198;28;20109;-61
2021/11/09 01:44:01;;;;;;;35.43;18.87;;;7.20;99.90;;;;;;4127689;28;20479;-61
2021/11/09 01:46:04;;;;;;;32.30;17.83;;;7.20;99.90;;;;;;4126003;28;20030;-62
2021/11/09 01:48:06;;;;;;;38.23;18.57;;;7.20;99.90;;;;;;4122431;28;20038;-62
2021/11/09 01:50:09;;;;;;;32.10;17.50;;;7.20;99.90;;;;;;4109520;28;20031;-67
2021/11/09 01:52:10;;;;;;;31.90;17.53;;;7.20;99.90;;;;;;4110420;28;20093;-62
2021/11/09 01:54:12;;;;;;;31.77;18.30;;;7.20;99.90;;;;;;4121891;28;20435;-59
2021/11/09 01:56:16;;;;;;;33.83;17.77;;;7.20;99.90;;;;;;4125448;28;20034;-65
2021/11/09 01:58:17;;;;;;;29.77;17.57;;;7.20;99.90;;;;;;4127075;28;20034;-63
2021/11/09 02:00:23;;;;;;;28.60;17.83;;;7.20;99.90;;;;;;4125995;28;20498;-66
2021/11/09 02:02:25;;;;;;;30.67;18.17;;;7.20;99.90;;;;;;4126196;28;20090;-62
2021/11/09 02:04:27;;;;;;;31.23;17.77;;;7.20;99.90;;;;;;4125215;28;20564;-62
2021/11/09 02:06:29;;;;;;;30.70;17.30;;;7.20;99.90;;;;;;4126956;28;20065;-65
2021/11/09 02:08:31;;;;;;;31.43;17.20;;;7.20;99.90;;;;;;4125652;28;20483;-60
2021/11/09 02:10:35;;;;;;;28.97;17.00;;;7.20;99.90;;;;;;4126735;28;20042;-62
2021/11/09 02:12:37;;;;;;;27.67;16.10;;;7.20;99.90;;;;;;4117816;28;20039;-62
2021/11/09 02:14:38;;;;;;;29.17;17.10;;;7.20;99.90;;;;;;4110472;28;20088;-65
2021/11/09 02:16:39;;;;;;;27.73;16.27;;;7.20;99.90;;;;;;4109146;28;20039;-62
2021/11/09 02:18:40;;;;;;;26.27;16.30;;;7.20;99.90;;;;;;4111684;28;20046;-61
2021/11/09 02:20:49;;;;;;;27.43;15.57;;;7.20;99.90;;;;;;4109347;28;20043;-66
2021/11/09 02:22:50;;;;;;;32.67;16.33;;;7.20;99.90;;;;;;4110158;28;20054;-61
2021/11/09 02:24:52;;;;;;;29.60;16.50;;;7.20;99.90;;;;;;4110016;28;20573;-64
2021/11/09 02:26:53;;;;;;;30.70;17.23;;;7.20;99.90;;;;;;4109595;28;20125;-66
2021/11/09 02:28:56;;;;;;;26.50;16.23;;;7.20;99.90;;;;;;4110176;28;20554;-65
2021/11/09 02:30:58;;;;;;;29.73;16.93;;;7.20;99.90;;;;;;4110750;28;20071;-64
2021/11/09 02:33:00;;;;;;;31.07;17.73;;;7.10;99.90;;;;;;4109909;28;20027;-68
2021/11/09 02:35:02;;;;;;;32.47;17.93;;;7.10;99.90;;;;;;4108728;28;20035;-62
2021/11/09 02:37:04;;;;;;;31.87;18.27;;;7.10;99.90;;;;;;4110402;28;20031;-61
2021/11/09 02:39:05;;;;;;;30.93;18.97;;;7.10;99.90;;;;;;4125315;28;20030;-61
2021/11/09 02:41:06;;;;;;;37.17;18.43;;;7.10;99.90;;;;;;4113959;28;20051;-61
2021/11/09 02:43:10;;;;;;;32.53;19.37;;;7.10;99.90;;;;;;4109232;28;20027;-63
2021/11/09 02:45:20;;;;;;;36.77;18.90;;;7.10;99.90;;;;;;4110077;28;20187;-62
2021/11/09 02:47:25;;;;;;;30.17;17.48;;;7.10;99.90;;;;;;4109172;28;20823;-65
2021/11/09 02:49:30;;;;;;;29.07;17.83;;;7.10;99.90;;;;;;4110221;28;20038;-61
2021/11/09 02:53:43;;;;;;;34.10;18.73;;;7.00;99.90;;;;;;4110133;28;20093;-61
2021/11/09 02:55:53;;;;;;;35.60;20.37;;;7.10;99.90;;;;;;4109491;28;20031;-63
2021/11/09 02:58:02;;;;;;;36.63;19.47;;;7.00;99.90;;;;;;4110117;28;20085;-66
2021/11/09 03:06:47;;;;;;;37.77;19.40;;;7.00;99.90;;;;;;4110079;28;20625;-62
2021/11/09 03:08:56;;;;;;;37.07;20.43;;;6.90;99.90;;;;;;4108663;28;20447;-62
2021/11/09 03:10:59;;;;;;;38.67;19.60;;;6.90;99.90;;;;;;4109451;28;20070;-62
2021/11/09 03:13:02;;;;;;;37.47;19.90;;;6.90;99.90;;;;;;4108983;28;20046;-71
2021/11/09 03:15:07;;;;;;;36.90;19.43;;;6.90;99.90;;;;;;4109639;28;20050;-65
2021/11/09 03:17:16;;;;;;;37.83;19.97;;;6.90;99.90;;;;;;4108729;28;20504;-63
2021/11/09 03:19:29;;;;;;;36.27;20.13;;;6.90;99.90;;;;;;4110187;28;20035;-65
2021/11/09 03:40:14;;;;;;;46.97;21.57;;;6.90;99.90;;;;;;4108670;28;20546;-63
2021/11/09 03:46:37;;;;;;;39.13;19.60;;;6.90;99.90;;;;;;4109245;28;20458;-62
2021/11/09 03:48:38;;;;;;;35.20;19.10;;;6.80;99.90;;;;;;4108048;28;20439;-65
2021/11/09 03:50:42;;;;;;;40.10;20.23;;;6.90;99.90;;;;;;4109703;28;20035;-67
2021/11/09 03:52:58;;;;;;;38.50;19.40;;;6.90;99.90;;;;;;4108404;28;20090;-58
2021/11/09 03:55:04;;;;;;;37.87;18.67;;;6.80;99.90;;;;;;4113063;28;20069;-67
2021/11/09 03:57:15;;;;;;;35.20;19.07;;;6.80;99.90;;;;;;4124270;28;20067;-61
2021/11/09 03:59:21;;;;;;;;;;;6.80;99.90;;;;;;4125053;28;20050;-62
2021/11/09 04:01:28;;;;;;;40.47;19.67;;;6.80;99.90;;;;;;4123953;28;19973;-62
2021/11/09 04:06:22;;;;;;;40.57;19.70;;;6.80;99.90;;;;;;4124390;28;20085;-62
2021/11/09 04:09:34;;;;;;;35.73;18.97;;;6.80;99.90;;;;;;4123375;28;20034;-64
2021/11/09 04:11:20;;;;;;;38.80;18.30;;;6.80;99.90;;;;;;4111278;28;20058;-63
2021/11/09 04:20:14;;;;;;;40.80;20.02;;;6.80;99.90;;;;;;4125738;28;20549;-63
2021/11/09 04:29:23;;;;;;;39.73;21.00;;;6.80;99.90;;;;;;4108978;28;20098;-71
2021/11/09 05:10:03;;;;;;;35.60;19.00;;;6.70;99.90;;;;;;4126731;28;20565;-64
2021/11/09 05:12:05;;;;;;;36.30;18.73;;;6.70;99.90;;;;;;4126101;28;20545;-64
2021/11/09 05:14:08;;;;;;;36.27;19.47;;;6.70;99.90;;;;;;4114331;28;20059;-63
2021/11/09 05:16:09;;;;;;;37.00;18.97;;;6.70;99.90;;;;;;4111015;28;20109;-67
2021/11/09 05:18:10;;;;;;;30.23;17.50;;;6.60;99.90;;;;;;4109806;28;20077;-63
2021/11/09 05:20:11;;;;;;;39.60;18.97;;;6.60;99.90;;;;;;4110523;28;20092;-66
2021/11/09 05:22:12;;;;;;;35.67;19.67;;;6.60;99.90;;;;;;4110063;28;20430;-64
2021/11/09 05:24:14;;;;;;;36.10;18.23;;;6.60;99.90;;;;;;4109511;28;20038;-65
2021/11/09 05:26:17;;;;;;;40.57;19.40;;;6.60;99.90;;;;;;4110931;28;20085;-64
2021/11/09 05:28:18;;;;;;;42.03;20.47;;;6.60;99.90;;;;;;4110153;28;20035;-63
2021/11/09 05:30:21;;;;;;;40.43;19.07;;;6.60;99.90;;;;;;4110609;28;20046;-66
2021/11/09 05:32:23;;;;;;;39.60;19.43;;;6.60;99.90;;;;;;4110883;28;20047;-65
2021/11/09 05:34:26;;;;;;;39.67;19.37;;;6.60;99.90;;;;;;4111305;28;20031;-63
2021/11/09 05:36:37;;;;;;;39.67;19.10;;;6.60;99.90;;;;;;4116709;28;20104;-63
2021/11/09 05:38:49;;;;;;;37.25;19.05;;;6.60;99.90;;;;;;4126660;28;20073;-63
2021/11/09 05:40:54;;;;;;;44.00;20.13;;;6.60;99.90;;;;;;4125728;28;20093;-65
2021/11/09 05:42:56;;;;;;;42.60;18.97;;;6.60;99.90;;;;;;4126179;28;20474;-65
2021/11/09 05:44:58;;;;;;;39.13;19.80;;;6.60;99.90;;;;;;4124113;28;20042;-64
2021/11/09 05:46:59;;;;;;;40.20;19.37;;;6.50;99.90;;;;;;4126588;28;20097;-63
2021/11/09 05:49:01;;;;;;;40.87;18.33;;;6.60;99.90;;;;;;4125638;28;20050;-60
2021/11/09 05:51:06;;;;;;;42.17;20.30;;;6.50;99.90;;;;;;4124640;28;20084;-64
2021/11/09 05:53:07;;;;;;;42.07;20.53;;;6.50;99.90;;;;;;4124762;28;20054;-67
2021/11/09 05:55:09;;;;;;;38.57;19.70;;;6.50;99.90;;;;;;4126494;28;20494;-62
2021/11/09 05:57:10;;;;;;;40.77;19.87;;;6.50;99.90;;;;;;4125070;28;20042;-63
2021/11/09 05:59:11;;;;;;;41.67;19.20;;;6.50;99.90;;;;;;4126539;28;20030;-62
2021/11/09 06:01:13;;;;;;;40.57;18.13;;;6.50;99.90;;;;;;4125807;28;20072;-63
2021/11/09 06:03:14;;;;;;;37.03;18.80;;;6.50;99.90;;;;;;4126092;28;20474;-62
2021/11/09 06:05:16;;;;;;;38.37;19.27;;;6.60;99.90;;;;;;4125818;28;20537;-62
2021/11/09 06:07:17;;;;;;;40.00;18.67;;;6.50;99.90;;;;;;4125653;28;20156;-62
2021/11/09 06:09:19;;;;;;;41.30;18.90;;;6.50;99.90;;;;;;4125459;28;20482;-64
2021/11/09 06:11:20;;;;;;;41.07;19.40;;;6.50;99.90;;;;;;4125446;28;20034;-68
2021/11/09 06:13:21;;;;;;;38.83;20.27;;;6.60;99.90;;;;;;4126753;28;20085;-63
2021/11/09 06:15:22;;;;;;;37.17;19.47;;;6.60;99.90;;;;;;4125340;28;20076;-63
2021/11/09 06:17:23;;;;;;;36.27;19.37;;;6.60;99.90;;;;;;4126341;28;20093;-63
2021/11/09 06:19:25;;;;;;;39.40;20.00;;;6.70;99.90;;;;;;4125300;28;20788;-63
2021/11/09 06:21:26;;;;;;;39.20;20.03;;;6.60;99.90;;;;;;4126292;28;20034;-62
2021/11/09 06:23:27;;;;;;;35.53;17.53;;;6.60;99.90;;;;;;4124235;28;20050;-62
2021/11/09 06:25:28;;;;;;;36.40;19.03;;;6.60;99.90;;;;;;4125633;28;20031;-66
2021/11/09 06:27:29;;;;;;;41.90;19.63;;;6.60;99.90;;;;;;4124152;28;20509;-63
2021/11/09 06:29:31;;;;;;;36.53;17.23;;;6.60;99.90;;;;;;4126341;28;20038;-64
2021/11/09 06:31:32;;;;;;;39.07;18.23;;;6.60;99.90;;;;;;4124980;28;20084;-64
2021/11/09 06:33:34;;;;;;;34.20;17.80;;;6.60;99.90;;;;;;4125768;28;20018;-69
2021/11/09 06:35:35;;;;;;;36.40;17.17;;;6.60;99.90;;;;;;4125433;28;21269;-63
2021/11/09 06:37:36;;;;;;;37.17;18.30;;;6.60;99.90;;;;;;4125073;28;20093;-67
2021/11/09 06:39:37;;;;;;;38.87;17.77;;;6.60;99.90;;;;;;4126105;28;20022;-64
2021/11/09 06:41:38;;;;;;;40.53;18.90;;;6.50;99.90;;;;;;4124438;28;20042;-64
2021/11/09 06:43:40;;;;;;;40.70;18.73;;;6.50;99.90;;;;;;4125555;28;20565;-64
2021/11/09 06:45:42;;;;;;;40.20;18.07;;;6.50;99.90;;;;;;4124732;28;20031;-63
2021/11/09 06:47:44;;;;;;;39.07;17.57;;;6.50;99.90;;;;;;4125499;28;20643;-63
2021/11/09 06:49:46;;;;;;;35.07;16.60;;;6.50;99.90;;;;;;4124864;28;20089;-63
2021/11/09 06:51:47;;;;;;;37.13;17.47;;;6.40;99.90;;;;;;4125418;28;20096;-63
2021/11/09 06:53:48;;;;;;;32.40;16.57;;;6.40;99.90;;;;;;4124629;28;20117;-63
2021/11/09 06:55:49;;;;;;;37.03;17.37;;;6.50;99.90;;;;;;4125636;28;20553;-63
2021/11/09 06:57:51;;;;;;;37.67;17.20;;;6.50;99.90;;;;;;4123974;28;20034;-63
2021/11/09 06:59:52;;;;;;;35.47;17.00;;;6.50;99.90;;;;;;4124814;28;20097;-63
2021/11/09 07:01:54;;;;;;;35.10;16.40;;;6.50;99.90;;;;;;4122551;28;20104;-63
2021/11/09 07:03:55;;;;;;;31.33;15.03;;;6.50;99.90;;;;;;4125154;28;20030;-64
2021/11/09 07:05:57;;;;;;;30.20;15.67;;;6.60;99.90;;;;;;4124401;28;20768;-64
2021/11/09 07:07:58;;;;;;;31.33;16.03;;;6.60;99.90;;;;;;4124836;28;20038;-65
2021/11/09 07:09:59;;;;;;;35.37;16.80;;;6.60;99.90;;;;;;4124612;28;20077;-63
2021/11/09 07:12:02;;;;;;;35.23;16.63;;;6.60;99.90;;;;;;4123788;28;20112;-68
2021/11/09 07:14:03;;;;;;;33.33;16.20;;;6.70;99.90;;;;;;4125001;28;20427;-62
2021/11/09 07:16:04;;;;;;;34.60;16.23;;;6.70;99.90;;;;;;4123900;28;20085;-65
2021/11/09 07:18:07;;;;;;;32.90;15.07;;;6.60;99.90;;;;;;4125009;28;20513;-63
2021/11/09 07:20:10;;;;;;;31.87;15.53;;;6.60;99.90;;;;;;4124550;28;20069;-65
2021/11/09 07:22:11;;;;;;;28.20;15.07;;;6.60;99.90;;;;;;4125073;28;20030;-64
2021/11/09 07:24:14;;;;;;;32.20;16.50;;;6.60;99.90;;;;;;4123342;28;20170;-63
2021/11/09 07:26:15;;;;;;;33.63;15.83;;;6.70;99.90;;;;;;4125099;28;20042;-63
2021/11/09 07:28:16;;;;;;;35.87;16.50;;;6.70;99.90;;;;;;4123582;28;20093;-65
2021/11/09 07:30:17;;;;;;;30.43;15.33;;;6.70;99.90;;;;;;4125447;28;20026;-63
2021/11/09 07:32:21;;;;;;;31.00;15.03;;;6.70;99.90;;;;;;4124308;28;20108;-63
2021/11/09 07:34:23;;;;;;;32.30;14.90;;;6.70;99.90;;;;;;4124421;28;20042;-63
2021/11/09 07:36:25;;;;;;;31.10;14.47;;;6.80;99.90;;;;;;4123291;28;20104;-62
2021/11/09 07:38:26;;;;;;;28.17;13.63;;;6.80;99.90;;;;;;4123962;28;20038;-63
2021/11/09 07:40:27;;;;;;;28.70;14.70;;;6.80;99.90;;;;;;4123809;28;20073;-62
2021/11/09 07:42:28;;;;;;;33.20;14.17;;;6.80;99.90;;;;;;4124278;28;20058;-64
2021/11/09 07:44:29;;;;;;;28.87;14.57;;;6.80;99.90;;;;;;4124955;28;20057;-64
2021/11/09 07:46:31;;;;;;;30.63;15.07;;;6.80;99.90;;;;;;4124073;28;20100;-63
2021/11/09 07:48:33;;;;;;;28.87;13.90;;;6.90;99.90;;;;;;4124879;28;20392;-63
2021/11/09 07:50:34;;;;;;;27.00;14.40;;;6.90;99.90;;;;;;4124115;28;20996;-63
2021/11/09 07:52:36;;;;;;;27.33;13.27;;;7.00;99.90;;;;;;4124190;28;20132;-64
2021/11/09 07:54:44;;;;;;;24.60;13.93;;;7.00;99.90;;;;;;4124059;28;20434;-64
2021/11/09 07:56:45;;;;;;;26.97;12.83;;;7.30;99.90;;;;;;4124877;28;20045;-65
2021/11/09 07:59:09;;;;;;;26.37;12.90;;;7.70;99.90;;;;;;4122954;28;20050;-64
2021/11/09 08:01:14;;;;;;;28.90;13.53;;;8.00;99.90;;;;;;4124303;28;20039;-65
2021/11/09 08:03:23;;;;;;;25.57;13.13;;;8.40;99.90;;;;;;4123499;28;20038;-65
2021/11/09 08:05:30;;;;;;;29.27;13.70;;;8.70;99.90;;;;;;4123989;28;20034;-64
2021/11/09 08:07:38;;;;;;;28.80;13.67;;;8.70;99.90;;;;;;4122859;28;20089;-66
2021/11/09 08:09:40;;;;;;;24.60;12.97;;;8.60;99.90;;;;;;4124231;28;20132;-66
2021/11/09 08:11:43;;;;;;;23.77;12.93;;;8.60;99.90;;;;;;4122940;28;20050;-64
2021/11/09 08:13:44;;;;;;;26.17;13.53;;;8.50;99.90;;;;;;4124993;28;20042;-65
2021/11/09 08:15:46;;;;;;;25.03;13.13;;;8.70;99.90;;;;;;4123166;28;20584;-63
2021/11/09 08:17:47;;;;;;;22.80;12.10;;;8.80;99.90;;;;;;4124805;28;20022;-64
2021/11/09 08:19:48;;;;;;;25.23;12.67;;;8.70;99.90;;;;;;4123656;28;20100;-65
2021/11/09 08:21:53;;;;;;;25.73;12.20;;;8.80;99.90;;;;;;4124548;28;20034;-64
2021/11/09 08:23:54;;;;;;;22.60;12.10;;;8.90;99.90;;;;;;4124001;28;20026;-65
2021/11/09 08:25:55;;;;;;;25.50;12.70;;;9.10;99.90;;;;;;4124191;28;20039;-61
2021/11/09 08:27:58;;;;;;;27.90;13.27;;;9.50;99.90;;;;;;4124166;28;20030;-63
2021/11/09 08:29:59;;;;;;;26.77;13.13;;;9.90;99.90;;;;;;4123234;28;20101;-64
2021/11/09 08:32:01;;;;;;;26.70;13.73;;;10.20;99.90;;;;;;4124181;28;20617;-64
2021/11/09 08:34:04;;;;;;;30.43;15.37;;;10.50;99.90;;;;;;4123606;28;20144;-65
2021/11/09 08:36:09;;;;;;;26.13;13.87;;;10.90;99.90;;;;;;4124420;28;20026;-65
2021/11/09 08:38:12;;;;;;;22.83;12.97;;;11.10;99.90;;;;;;4122938;28;20043;-65
2021/11/09 08:40:17;;;;;;;24.73;11.60;;;11.20;99.90;;;;;;4123618;28;20038;-65
2021/11/09 08:42:32;;;;;;;31.97;14.33;;;11.50;99.90;;;;;;4121024;28;20050;-65
2021/11/09 08:44:37;;;;;;;24.63;13.37;;;11.60;99.90;;;;;;4124771;28;20034;-63
2021/11/09 08:46:45;;;;;;;24.97;12.57;;;11.80;99.90;;;;;;4122446;28;20128;-66
2021/11/09 08:48:49;;;;;;;25.60;11.87;;;11.70;99.90;;;;;;4122734;28;20093;-63
2021/11/09 08:50:54;;;;;;;25.83;12.67;;;11.50;99.90;;;;;;4121162;28;20077;-64
2021/11/09 08:52:57;;;;;;;24.87;13.20;;;11.50;99.90;;;;;;4123338;28;20054;-63
2021/11/09 09:04:19;;;;;;;16.95;9.23;;;10.80;99.90;;;;;;4123873;28;20117;-64
2021/11/09 09:06:21;;;;;;;19.37;8.23;;;10.70;99.90;;;;;;4124172;28;20089;-64
2021/11/09 09:08:23;;;;;;;17.17;9.30;;;10.50;99.90;;;;;;4122663;28;20081;-64
2021/11/09 09:10:24;;;;;;;17.43;8.83;;;10.50;99.90;;;;;;4123618;28;20042;-63
2021/11/09 09:12:28;;;;;;;19.37;9.37;;;10.60;99.90;;;;;;4122959;28;20035;-63
2021/11/09 09:14:29;;;;;;;15.73;8.40;;;10.60;99.90;;;;;;4123858;28;20097;-64
2021/11/09 09:16:31;;;;;;;16.47;8.87;;;10.50;99.90;;;;;;4121163;28;20038;-66
2021/11/09 09:18:33;;;;;;;15.40;8.70;;;10.40;99.90;;;;;;4124708;28;20097;-63
2021/11/09 09:20:43;;;;;;;17.97;8.73;;;10.40;99.90;;;;;;4123740;28;20086;-63
2021/11/09 09:23:01;;;;;;;17.85;8.32;;;10.40;99.90;;;;;;4126839;28;20455;-65
2021/11/09 09:29:25;;;;;;;16.90;9.07;;;10.30;99.90;;;;;;4125651;28;20073;-63
2021/11/09 09:52:11;;;;;;;15.25;7.80;;;10.40;99.90;;;;;;4125853;28;20101;-63
2021/11/09 09:52:59;;;;;;;17.07;8.60;;;10.10;99.90;;;;;;4126526;28;20509;-64
2021/11/09 09:55:14;;;;;;;15.67;7.97;;;10.00;99.90;;;;;;4124739;28;20081;-63
2021/11/09 09:57:15;;;;;;;19.37;9.07;;;9.90;99.90;;;;;;4126360;28;20097;-65
2021/11/09 09:59:17;;;;;;;18.90;9.20;;;10.00;99.90;;;;;;4125700;28;20089;-64
2021/11/09 10:01:18;;;;;;;17.87;8.53;;;9.80;99.90;;;;;;4125401;28;20038;-64
2021/11/09 10:03:32;;;;;;;15.00;8.23;;;9.80;99.90;;;;;;4125443;28;20435;-64
2021/11/09 10:05:42;;;;;;;17.53;9.03;;;9.80;99.90;;;;;;4126176;28;20038;-64
2021/11/09 10:07:49;;;;;;;19.58;9.02;;;9.80;99.90;;;;;;4121269;28;20568;-64
2021/11/09 10:09:51;;;;;;;16.90;8.70;;;9.80;99.90;;;;;;4126171;28;20472;-64
2021/11/09 10:11:52;;;;;;;17.47;8.60;;;9.80;99.90;;;;;;4125320;28;20031;-64
2021/11/09 10:13:53;;;;;;;17.23;9.27;;;9.80;99.90;;;;;;4125504;28;20038;-63
2021/11/09 10:15:56;;;;;;;17.60;9.50;;;9.90;99.90;;;;;;4125295;28;20096;-63
2021/11/09 10:18:19;;;;;;;17.63;8.57;;;9.90;99.90;;;;;;4125205;28;20034;-64
2021/11/09 10:20:27;;;;;;;19.70;9.40;;;9.60;99.90;;;;;;4125682;28;20132;-64
2021/11/09 10:22:35;;;;;;;15.50;8.60;;;9.60;99.90;;;;;;4125379;28;20431;-64
2021/11/09 10:24:36;;;;;;;15.73;8.63;;;9.40;99.90;;;;;;4125181;28;20038;-64
2021/11/09 10:26:37;;;;;;;23.63;9.03;;;9.50;99.90;;;;;;4125556;28;20559;-63
2021/11/09 10:28:39;;;;;;;20.07;9.20;;;9.50;99.90;;;;;;4126137;28;20033;-64
2021/11/09 10:30:47;;;;;;;17.43;8.83;;;9.50;99.90;;;;;;4124734;28;20070;-64
2021/11/09 10:32:48;;;;;;;17.37;9.20;;;9.30;99.90;;;;;;4122805;28;20561;-62
2021/11/09 10:34:51;;;;;;;19.87;9.70;;;9.20;99.90;;;;;;4124732;28;20120;-63
2021/11/09 10:37:32;;;;;;;13.80;7.83;;;9.30;99.90;;;;;;4125892;28;20030;-67
2021/11/09 10:39:33;;;;;;;15.90;7.90;;;9.30;99.90;;;;;;4124450;28;20108;-63
2021/11/09 10:41:37;;;;;;;16.40;9.30;;;9.30;99.90;;;;;;4125873;28;20101;-62
2021/11/09 10:43:38;;;;;;;14.67;8.70;;;9.40;99.90;;;;;;4124800;28;20422;-64
2021/11/09 10:45:40;;;;;;;17.63;8.47;;;9.40;99.90;;;;;;4125434;28;20061;-63
2021/11/09 10:47:45;;;;;;;13.67;8.87;;;9.40;99.90;;;;;;4123719;28;20085;-64
2021/11/09 10:49:53;;;;;;;15.27;7.97;;;9.40;99.90;;;;;;4125642;28;20114;-63
2021/11/09 10:52:01;;;;;;;15.77;8.37;;;9.30;99.90;;;;;;4124582;28;20085;-64
2021/11/09 10:54:05;;;;;;;15.87;8.23;;;9.20;99.90;;;;;;4126027;28;20435;-69
2021/11/09 11:05:20;;;;;;;18.58;8.80;;;9.60;99.90;;;;;;4123781;28;20030;-63
2021/11/09 11:07:21;;;;;;;19.23;8.77;;;9.70;99.90;;;;;;4125151;28;20046;-64
2021/11/09 11:09:23;;;;;;;16.73;8.30;;;9.70;99.90;;;;;;4124396;28;20038;-70
2021/11/09 11:11:31;;;;;;;14.07;7.90;;;9.80;99.90;;;;;;4125269;28;20076;-63
2021/11/09 11:13:32;;;;;;;15.80;8.53;;;9.90;99.90;;;;;;4124053;28;20092;-65
2021/11/09 11:15:35;;;;;;;15.73;8.83;;;9.90;99.90;;;;;;4125471;28;20039;-65
2021/11/09 11:17:41;;;;;;;16.17;8.53;;;10.00;99.90;;;;;;4123924;28;20026;-71
2021/11/09 11:19:55;;;;;;;16.07;8.80;;;9.90;99.90;;;;;;4125706;28;20030;-63
2021/11/09 11:21:57;;;;;;;17.40;8.87;;;9.90;99.90;;;;;;4123002;28;20050;-67
2021/11/09 11:23:59;;;;;;;15.30;7.70;;;9.70;99.90;;;;;;4125382;28;20038;-61
2021/11/09 11:26:00;;;;;;;11.77;6.90;;;9.80;99.90;;;;;;4123554;28;20038;-65
2021/11/09 11:28:01;;;;;;;13.80;6.57;;;9.80;99.90;;;;;;4124720;28;20050;-64
2021/11/09 11:30:03;;;;;;;12.00;6.67;;;9.90;99.90;;;;;;4123458;28;20089;-66
2021/11/09 11:32:07;;;;;;;12.93;7.63;;;9.90;99.90;;;;;;4124777;28;20039;-63
2021/11/09 11:34:09;;;;;;;14.43;6.80;;;9.90;99.90;;;;;;4124130;28;20088;-64
2021/11/09 11:36:10;;;;;;;11.57;6.20;;;9.90;99.90;;;;;;4124731;28;20042;-62
2021/11/09 11:38:12;;;;;;;12.93;6.53;;;10.00;99.90;;;;;;4124328;28;20073;-62
2021/11/09 11:40:14;;;;;;;14.87;7.03;;;10.00;99.90;;;;;;4123879;28;20088;-63
2021/11/09 11:42:17;;;;;;;18.27;8.17;;;10.00;99.90;;;;;;4124410;28;20108;-64
2021/11/09 11:44:26;;;;;;;13.87;7.73;;;10.00;99.90;;;;;;4123859;28;20097;-69
2021/11/09 11:46:33;;;;;;;16.07;7.10;;;9.90;99.90;;;;;;4125329;28;20030;-63
2021/11/09 11:49:02;;;;;;;11.53;6.50;;;9.90;99.90;;;;;;4123841;28;20515;-63
2021/11/09 11:51:12;;;;;;;12.63;7.27;;;9.80;99.90;;;;;;4124637;28;20081;-63
2021/11/09 11:53:13;;;;;;;16.58;6.40;;;9.80;99.90;;;;;;4124478;28;20035;-64
2021/11/09 11:55:24;;;;;;;17.13;7.57;;;9.70;99.90;;;;;;4124713;28;20617;-66
2021/11/09 11:57:29;;;;;;;12.53;6.63;;;9.60;99.90;;;;;;4124071;28;20035;-65
2021/11/09 11:59:33;;;;;;;15.20;7.50;;;9.60;99.90;;;;;;4124845;28;20521;-71
2021/11/09 12:01:39;;;;;;;12.10;6.87;;;9.60;99.90;;;;;;4123139;28;20474;-62
2021/11/09 12:03:41;;;;;;;12.50;6.10;;;9.60;99.90;;;;;;4124232;28;20034;-64
2021/11/09 12:05:44;;;;;;;14.87;7.97;;;9.60;99.90;;;;;;4123165;28;20042;-62
2021/11/09 12:07:57;;;;;;;12.07;7.80;;;9.60;99.90;;;;;;4124341;28;20042;-62
2021/11/09 12:10:06;;;;;;;12.10;7.53;;;9.50;99.90;;;;;;4123292;28;20038;-63
2021/11/09 12:12:22;;;;;;;13.37;7.40;;;9.50;99.90;;;;;;4123538;28;20113;-65
2021/11/09 12:14:24;;;;;;;12.47;7.27;;;9.50;99.90;;;;;;4123253;28;20128;-64
2021/11/09 12:16:44;;;;;;;14.77;8.40;;;9.50;99.90;;;;;;4124679;28;20481;-63
2021/11/09 12:18:45;;;;;;;16.55;7.93;;;9.50;99.90;;;;;;4122672;28;20104;-64
2021/11/09 12:20:46;;;;;;;15.33;7.90;;;9.60;99.90;;;;;;4125211;28;20042;-62
2021/11/09 12:22:52;;;;;;;12.13;7.00;;;9.60;99.90;;;;;;4123102;28;20038;-65
2021/11/09 12:24:57;;;;;;;13.07;7.30;;;9.60;99.90;;;;;;4124596;28;20104;-62
2021/11/09 12:26:59;;;;;;;13.67;7.53;;;9.50;99.90;;;;;;4123424;28;20064;-65
2021/11/09 12:29:00;;;;;;;13.77;7.60;;;9.50;99.90;;;;;;4124495;28;20034;-62
2021/11/09 12:31:12;;;;;;;14.27;7.60;;;9.50;99.90;;;;;;4123212;28;20120;-62
2021/11/09 12:33:22;;;;;;;14.87;7.37;;;9.60;99.90;;;;;;4124571;28;20038;-64
2021/11/09 12:35:27;;;;;;;15.90;6.80;;;9.60;99.90;;;;;;4121413;28;20055;-62
2021/11/09 12:37:30;;;;;;;12.97;7.00;;;9.60;99.90;;;;;;4124191;28;20042;-63
2021/11/09 12:39:31;;;;;;;14.27;7.77;;;9.60;99.90;;;;;;4122941;28;20093;-63
2021/11/09 12:41:33;;;;;;;15.73;7.97;;;9.60;99.90;;;;;;4123755;28;20046;-70
2021/11/09 12:43:45;;;;;;;12.33;7.33;;;9.60;99.90;;;;;;4122901;28;20510;-63
2021/11/09 12:45:46;;;;;;;15.90;8.27;;;9.60;99.90;;;;;;4124101;28;20034;-63
2021/11/09 12:48:01;;;;;;;13.70;7.70;;;9.60;99.90;;;;;;4122460;28;20103;-62